sensor_id;sensor_type;location;lat;lon;timestamp;pressure;altitude;pressure_sealevel;temperature;humidity
78584;BME280;67880;46.082;18.234;2023-09-18T00:00:12;99852.94;;;20.00;77.13
78584;BME280;67880;46.082;18.234;2023-09-18T00:00:46;99857.75;;;20.05;76.70
78584;BME280;67880;46.082;18.234;2023-09-18T00:01:22;99856.25;;;20.09;76.89
78584;BME280;67880;46.082;18.234;2023-09-18T00:01:54;99857.53;;;20.06;77.37
78584;BME280;67880;46.082;18.234;2023-09-18T00:02:27;99859.78;;;20.09;76.39
78584;BME280;67880;46.082;18.234;2023-09-18T00:03:00;99850.41;;;20.05;77.02
78584;BME280;67880;46.082;18.234;2023-09-18T00:03:47;99854.56;;;20.08;77.14
78584;BME280;67880;46.082;18.234;2023-09-18T00:04:19;99855.63;;;20.07;76.73
78584;BME280;67880;46.082;18.234;2023-09-18T00:04:54;99853.50;;;20.09;76.87
78584;BME280;67880;46.082;18.234;2023-09-18T00:05:26;99849.56;;;20.05;76.93
78584;BME280;67880;46.082;18.234;2023-09-18T00:05:59;99847.06;;;20.03;76.67
78584;BME280;67880;46.082;18.234;2023-09-18T00:06:32;99857.75;;;20.05;76.48
78584;BME280;67880;46.082;18.234;2023-09-18T00:07:05;99861.94;;;20.00;76.83
78584;BME280;67880;46.082;18.234;2023-09-18T00:07:37;99859.44;;;19.99;76.99
78584;BME280;67880;46.082;18.234;2023-09-18T00:08:09;99853.53;;;20.02;76.98
78584;BME280;67880;46.082;18.234;2023-09-18T00:08:42;99861.72;;;20.02;76.97
78584;BME280;67880;46.082;18.234;2023-09-18T00:09:15;99857.97;;;20.03;77.30
78584;BME280;67880;46.082;18.234;2023-09-18T00:09:48;99848.09;;;20.02;76.91
78584;BME280;67880;46.082;18.234;2023-09-18T00:10:20;99858.38;;;20.00;77.35
78584;BME280;67880;46.082;18.234;2023-09-18T00:10:54;99858.59;;;19.98;77.03
78584;BME280;67880;46.082;18.234;2023-09-18T00:11:26;99862.56;;;19.96;77.26
78584;BME280;67880;46.082;18.234;2023-09-18T00:11:59;99861.75;;;19.95;77.49
78584;BME280;67880;46.082;18.234;2023-09-18T00:12:44;99853.19;;;19.92;77.88
78584;BME280;67880;46.082;18.234;2023-09-18T00:13:17;99854.84;;;19.93;77.56
78584;BME280;67880;46.082;18.234;2023-09-18T00:13:49;99856.97;;;19.91;77.22
78584;BME280;67880;46.082;18.234;2023-09-18T00:14:21;99858.63;;;19.92;77.08
78584;BME280;67880;46.082;18.234;2023-09-18T00:14:54;99851.91;;;19.94;77.29
78584;BME280;67880;46.082;18.234;2023-09-18T00:15:27;99849.59;;;19.98;76.82
78584;BME280;67880;46.082;18.234;2023-09-18T00:15:59;99845.41;;;19.95;76.97
78584;BME280;67880;46.082;18.234;2023-09-18T00:16:32;99855.22;;;19.96;76.79
78584;BME280;67880;46.082;18.234;2023-09-18T00:17:22;99852.72;;;19.95;77.36
78584;BME280;67880;46.082;18.234;2023-09-18T00:17:56;99855.69;;;19.93;77.37
78584;BME280;67880;46.082;18.234;2023-09-18T00:18:28;99845.88;;;19.86;77.01
78584;BME280;67880;46.082;18.234;2023-09-18T00:19:01;99842.53;;;19.84;77.62
78584;BME280;67880;46.082;18.234;2023-09-18T00:19:34;99835.56;;;19.88;77.88
78584;BME280;67880;46.082;18.234;2023-09-18T00:20:07;99850.47;;;19.85;77.33
78584;BME280;67880;46.082;18.234;2023-09-18T00:20:39;99843.97;;;19.86;77.46
78584;BME280;67880;46.082;18.234;2023-09-18T00:21:13;99853.81;;;19.87;77.87
78584;BME280;67880;46.082;18.234;2023-09-18T00:21:45;99848.38;;;19.87;77.74
78584;BME280;67880;46.082;18.234;2023-09-18T00:22:17;99844.81;;;19.87;77.24
78584;BME280;67880;46.082;18.234;2023-09-18T00:22:50;99848.59;;;19.86;77.48
78584;BME280;67880;46.082;18.234;2023-09-18T00:23:22;99851.09;;;19.87;77.33
78584;BME280;67880;46.082;18.234;2023-09-18T00:23:54;99846.50;;;19.81;77.20
78584;BME280;67880;46.082;18.234;2023-09-18T00:24:27;99838.53;;;19.80;77.48
78584;BME280;67880;46.082;18.234;2023-09-18T00:24:59;99843.56;;;19.76;77.45
78584;BME280;67880;46.082;18.234;2023-09-18T00:25:33;99845.25;;;19.77;77.78
78584;BME280;67880;46.082;18.234;2023-09-18T00:26:06;99838.56;;;19.73;77.82
78584;BME280;67880;46.082;18.234;2023-09-18T00:26:38;99839.41;;;19.73;78.02
78584;BME280;67880;46.082;18.234;2023-09-18T00:27:10;99835.22;;;19.71;78.02
78584;BME280;67880;46.082;18.234;2023-09-18T00:27:59;99836.69;;;19.73;77.92
78584;BME280;67880;46.082;18.234;2023-09-18T00:28:31;99835.22;;;19.71;78.00
78584;BME280;67880;46.082;18.234;2023-09-18T00:29:06;99842.97;;;19.74;77.86
78584;BME280;67880;46.082;18.234;2023-09-18T00:29:38;99841.91;;;19.75;78.19
78584;BME280;67880;46.082;18.234;2023-09-18T00:30:11;99842.97;;;19.74;77.97
78584;BME280;67880;46.082;18.234;2023-09-18T00:30:47;99839.41;;;19.73;77.94
78584;BME280;67880;46.082;18.234;2023-09-18T00:31:22;99842.97;;;19.74;78.45
78584;BME280;67880;46.082;18.234;2023-09-18T00:31:54;99843.19;;;19.72;78.31
78584;BME280;67880;46.082;18.234;2023-09-18T00:32:28;99842.97;;;19.67;78.47
78584;BME280;67880;46.082;18.234;2023-09-18T00:33:00;99838.16;;;19.69;78.44
78584;BME280;67880;46.082;18.234;2023-09-18T00:33:33;99842.53;;;19.70;78.12
78584;BME280;67880;46.082;18.234;2023-09-18T00:34:05;99844.44;;;19.70;78.34
78584;BME280;67880;46.082;18.234;2023-09-18T00:34:37;99841.31;;;19.66;78.25
78584;BME280;67880;46.082;18.234;2023-09-18T00:35:09;99841.34;;;19.60;78.53
78584;BME280;67880;46.082;18.234;2023-09-18T00:35:48;99833.16;;;19.60;78.62
78584;BME280;67880;46.082;18.234;2023-09-18T00:36:33;99844.44;;;19.63;78.58
78584;BME280;67880;46.082;18.234;2023-09-18T00:37:06;99834.84;;;19.61;78.31
78584;BME280;67880;46.082;18.234;2023-09-18T00:37:38;99838.38;;;19.61;78.14
78584;BME280;67880;46.082;18.234;2023-09-18T00:38:11;99836.72;;;19.60;78.60
78584;BME280;67880;46.082;18.234;2023-09-18T00:38:43;99834.59;;;19.56;78.70
78584;BME280;67880;46.082;18.234;2023-09-18T00:39:16;99839.44;;;19.54;78.49
78584;BME280;67880;46.082;18.234;2023-09-18T00:39:50;99838.81;;;19.52;79.23
78584;BME280;67880;46.082;18.234;2023-09-18T00:40:22;99834.38;;;19.51;78.66
78584;BME280;67880;46.082;18.234;2023-09-18T00:40:54;99835.88;;;19.46;78.89
78584;BME280;67880;46.082;18.234;2023-09-18T00:41:27;99835.88;;;19.46;79.26
78584;BME280;67880;46.082;18.234;2023-09-18T00:41:59;99837.13;;;19.44;79.36
78584;BME280;67880;46.082;18.234;2023-09-18T00:42:31;99832.97;;;19.41;79.27
78584;BME280;67880;46.082;18.234;2023-09-18T00:43:04;99833.19;;;19.40;79.24
78584;BME280;67880;46.082;18.234;2023-09-18T00:43:36;99837.78;;;19.46;79.21
78584;BME280;67880;46.082;18.234;2023-09-18T00:44:12;99832.97;;;19.41;79.10
78584;BME280;67880;46.082;18.234;2023-09-18T00:44:45;99828.97;;;19.37;79.88
78584;BME280;67880;46.082;18.234;2023-09-18T00:45:17;99835.47;;;19.43;79.12
78584;BME280;67880;46.082;18.234;2023-09-18T00:45:50;99827.28;;;19.43;79.25
78584;BME280;67880;46.082;18.234;2023-09-18T00:46:23;99824.78;;;19.41;79.07
78584;BME280;67880;46.082;18.234;2023-09-18T00:46:56;99831.69;;;19.37;79.57
78584;BME280;67880;46.082;18.234;2023-09-18T00:47:29;99830.25;;;19.35;79.51
78584;BME280;67880;46.082;18.234;2023-09-18T00:48:01;99828.56;;;19.40;79.76
78584;BME280;67880;46.082;18.234;2023-09-18T00:48:33;99837.97;;;19.44;79.08
78584;BME280;67880;46.082;18.234;2023-09-18T00:49:06;99833.19;;;19.40;79.26
78584;BME280;67880;46.082;18.234;2023-09-18T00:49:41;99830.47;;;19.40;79.29
78584;BME280;67880;46.082;18.234;2023-09-18T00:50:14;99830.66;;;19.45;78.98
78584;BME280;67880;46.082;18.234;2023-09-18T00:50:48;99838.19;;;19.43;79.49
78584;BME280;67880;46.082;18.234;2023-09-18T00:51:20;99832.13;;;19.41;78.89
78584;BME280;67880;46.082;18.234;2023-09-18T00:51:53;99829.41;;;19.41;78.84
78584;BME280;67880;46.082;18.234;2023-09-18T00:52:27;99832.34;;;19.39;79.50
78584;BME280;67880;46.082;18.234;2023-09-18T00:53:01;99837.97;;;19.38;79.25
78584;BME280;67880;46.082;18.234;2023-09-18T00:53:34;99828.13;;;19.37;79.54
78584;BME280;67880;46.082;18.234;2023-09-18T00:54:08;99832.13;;;19.34;79.26
78584;BME280;67880;46.082;18.234;2023-09-18T00:54:42;99833.19;;;19.33;79.78
78584;BME280;67880;46.082;18.234;2023-09-18T00:55:15;99827.09;;;19.31;79.93
78584;BME280;67880;46.082;18.234;2023-09-18T00:55:50;99823.97;;;19.34;79.68
78584;BME280;67880;46.082;18.234;2023-09-18T00:56:25;99826.91;;;19.33;79.74
78584;BME280;67880;46.082;18.234;2023-09-18T00:56:58;99828.13;;;19.37;79.42
78584;BME280;67880;46.082;18.234;2023-09-18T00:57:30;99829.19;;;19.36;79.70
78584;BME280;67880;46.082;18.234;2023-09-18T00:58:02;99834.41;;;19.37;79.22
78584;BME280;67880;46.082;18.234;2023-09-18T00:58:35;99827.94;;;19.32;79.88
78584;BME280;67880;46.082;18.234;2023-09-18T00:59:08;99821.66;;;19.31;80.08
78584;BME280;67880;46.082;18.234;2023-09-18T00:59:42;99823.53;;;19.31;79.84
78584;BME280;67880;46.082;18.234;2023-09-18T01:00:15;99826.28;;;19.31;79.31
78584;BME280;67880;46.082;18.234;2023-09-18T01:00:50;99824.81;;;19.28;79.75
78584;BME280;67880;46.082;18.234;2023-09-18T01:01:24;99831.53;;;19.32;79.82
78584;BME280;67880;46.082;18.234;2023-09-18T01:01:57;99825.84;;;19.34;79.44
78584;BME280;67880;46.082;18.234;2023-09-18T01:02:29;99826.91;;;19.33;79.52
78584;BME280;67880;46.082;18.234;2023-09-18T01:03:02;99823.53;;;19.31;79.42
78584;BME280;67880;46.082;18.234;2023-09-18T01:03:38;99831.31;;;19.34;79.42
78584;BME280;67880;46.082;18.234;2023-09-18T01:04:10;99822.72;;;19.30;79.52
78584;BME280;67880;46.082;18.234;2023-09-18T01:04:45;99823.34;;;19.32;79.57
78584;BME280;67880;46.082;18.234;2023-09-18T01:05:17;99828.16;;;19.30;79.60
78584;BME280;67880;46.082;18.234;2023-09-18T01:05:52;99823.16;;;19.27;79.90
78584;BME280;67880;46.082;18.234;2023-09-18T01:06:25;99829.66;;;19.26;79.45
78584;BME280;67880;46.082;18.234;2023-09-18T01:07:02;99823.38;;;19.26;79.62
78584;BME280;67880;46.082;18.234;2023-09-18T01:07:36;99824.19;;;19.26;79.83
78584;BME280;67880;46.082;18.234;2023-09-18T01:08:08;99831.09;;;19.29;79.75
78584;BME280;67880;46.082;18.234;2023-09-18T01:08:40;99822.31;;;19.27;79.90
78584;BME280;67880;46.082;18.234;2023-09-18T01:09:13;99818.31;;;19.23;80.00
78584;BME280;67880;46.082;18.234;2023-09-18T01:09:46;99828.16;;;19.24;79.80
78584;BME280;67880;46.082;18.234;2023-09-18T01:10:22;99820.22;;;19.22;79.88
78584;BME280;67880;46.082;18.234;2023-09-18T01:11:35;99817.50;;;19.15;80.57
78584;BME280;67880;46.082;18.234;2023-09-18T01:12:56;99822.50;;;19.18;80.03
78584;BME280;67880;46.082;18.234;2023-09-18T01:13:37;99826.28;;;19.17;79.99
78584;BME280;67880;46.082;18.234;2023-09-18T01:14:40;99822.72;;;19.17;80.42
78584;BME280;67880;46.082;18.234;2023-09-18T01:15:22;99816.66;;;19.15;80.16
78584;BME280;67880;46.082;18.234;2023-09-18T01:16:24;99810.78;;;19.11;80.33
78584;BME280;67880;46.082;18.234;2023-09-18T01:16:57;99816.25;;;19.11;80.21
78584;BME280;67880;46.082;18.234;2023-09-18T01:17:35;99819.41;;;19.08;80.55
78584;BME280;67880;46.082;18.234;2023-09-18T01:18:23;99823.19;;;19.07;80.47
78584;BME280;67880;46.082;18.234;2023-09-18T01:18:56;99816.69;;;19.08;80.81
78584;BME280;67880;46.082;18.234;2023-09-18T01:20:11;99822.72;;;19.10;80.24
78584;BME280;67880;46.082;18.234;2023-09-18T01:20:44;99811.00;;;19.10;80.55
78584;BME280;67880;46.082;18.234;2023-09-18T01:21:19;99824.84;;;19.15;80.60
78584;BME280;67880;46.082;18.234;2023-09-18T01:21:52;99816.44;;;19.16;80.02
78584;BME280;67880;46.082;18.234;2023-09-18T01:22:57;99821.50;;;19.13;80.40
78584;BME280;67880;46.082;18.234;2023-09-18T01:23:30;99816.44;;;19.16;80.81
78584;BME280;67880;46.082;18.234;2023-09-18T01:24:02;99810.63;;;19.13;80.55
78584;BME280;67880;46.082;18.234;2023-09-18T01:24:36;99819.78;;;19.18;80.17
78584;BME280;67880;46.082;18.234;2023-09-18T01:25:10;99819.19;;;19.16;80.04
78584;BME280;67880;46.082;18.234;2023-09-18T01:25:43;99815.19;;;19.12;80.25
78584;BME280;67880;46.082;18.234;2023-09-18T01:26:15;99819.78;;;19.12;80.83
78584;BME280;67880;46.082;18.234;2023-09-18T01:26:50;99816.25;;;19.11;80.49
78584;BME280;67880;46.082;18.234;2023-09-18T01:27:22;99815.19;;;19.12;80.58
78584;BME280;67880;46.082;18.234;2023-09-18T01:27:55;99808.91;;;19.12;80.16
78584;BME280;67880;46.082;18.234;2023-09-18T01:28:27;99815.63;;;19.09;80.30
78584;BME280;67880;46.082;18.234;2023-09-18T01:28:59;99815.41;;;19.11;80.33
78584;BME280;67880;46.082;18.234;2023-09-18T01:29:32;99819.41;;;19.15;80.11
78584;BME280;67880;46.082;18.234;2023-09-18T01:30:04;99816.06;;;19.13;80.57
78584;BME280;67880;46.082;18.234;2023-09-18T01:30:37;99818.56;;;19.14;80.35
78584;BME280;67880;46.082;18.234;2023-09-18T01:31:10;99814.56;;;19.10;80.68
78584;BME280;67880;46.082;18.234;2023-09-18T01:31:42;99814.56;;;19.10;80.47
78584;BME280;67880;46.082;18.234;2023-09-18T01:32:16;99811.00;;;19.10;80.37
78584;BME280;67880;46.082;18.234;2023-09-18T01:32:52;99813.97;;;19.08;80.47
78584;BME280;67880;46.082;18.234;2023-09-18T01:33:27;99810.59;;;19.06;80.61
78584;BME280;67880;46.082;18.234;2023-09-18T01:34:00;99814.19;;;19.07;80.52
78584;BME280;67880;46.082;18.234;2023-09-18T01:34:36;99818.97;;;19.05;81.18
78584;BME280;67880;46.082;18.234;2023-09-18T01:35:10;99817.91;;;18.99;81.16
78584;BME280;67880;46.082;18.234;2023-09-18T01:35:45;99824.84;;;19.02;81.47
78584;BME280;67880;46.082;18.234;2023-09-18T01:36:31;99820.66;;;18.99;81.47
78584;BME280;67880;46.082;18.234;2023-09-18T01:37:05;99813.31;;;19.00;81.58
78584;BME280;67880;46.082;18.234;2023-09-18T01:37:41;99819.81;;;18.99;81.47
78584;BME280;67880;46.082;18.234;2023-09-18T01:38:14;99823.19;;;19.01;80.99
78584;BME280;67880;46.082;18.234;2023-09-18T01:38:47;99813.13;;;19.01;81.21
78584;BME280;67880;46.082;18.234;2023-09-18T01:39:23;99816.47;;;19.03;81.24
78584;BME280;67880;46.082;18.234;2023-09-18T01:39:56;99822.13;;;19.02;81.17
78584;BME280;67880;46.082;18.234;2023-09-18T01:40:31;99824.00;;;19.01;81.10
78584;BME280;67880;46.082;18.234;2023-09-18T01:41:04;99822.13;;;19.02;81.43
78584;BME280;67880;46.082;18.234;2023-09-18T01:41:38;99821.28;;;19.01;81.12
78584;BME280;67880;46.082;18.234;2023-09-18T01:42:15;99821.06;;;19.03;81.28
78584;BME280;67880;46.082;18.234;2023-09-18T01:42:48;99818.56;;;19.01;80.62
78584;BME280;67880;46.082;18.234;2023-09-18T01:43:21;99817.31;;;19.04;80.88
78584;BME280;67880;46.082;18.234;2023-09-18T01:43:55;99822.34;;;19.00;81.19
78584;BME280;67880;46.082;18.234;2023-09-18T01:44:31;99812.69;;;18.98;81.03
78584;BME280;67880;46.082;18.234;2023-09-18T01:45:04;99816.25;;;18.98;81.09
78584;BME280;67880;46.082;18.234;2023-09-18T01:45:37;99814.38;;;18.99;80.94
78584;BME280;67880;46.082;18.234;2023-09-18T01:46:10;99818.56;;;19.01;81.25
78584;BME280;67880;46.082;18.234;2023-09-18T01:46:44;99815.19;;;18.99;80.81
78584;BME280;67880;46.082;18.234;2023-09-18T01:47:18;99824.19;;;19.00;80.87
78584;BME280;67880;46.082;18.234;2023-09-18T01:47:51;99815.84;;;18.94;81.14
78584;BME280;67880;46.082;18.234;2023-09-18T01:48:24;99818.13;;;18.98;81.42
78584;BME280;67880;46.082;18.234;2023-09-18T01:48:56;99816.03;;;19.00;81.07
78584;BME280;67880;46.082;18.234;2023-09-18T01:49:32;99820.03;;;19.04;80.95
78584;BME280;67880;46.082;18.234;2023-09-18T01:50:06;99825.47;;;19.04;80.98
78584;BME280;67880;46.082;18.234;2023-09-18T01:50:38;99817.09;;;19.05;80.68
78584;BME280;67880;46.082;18.234;2023-09-18T01:51:14;99819.63;;;19.07;80.61
78584;BME280;67880;46.082;18.234;2023-09-18T01:51:48;99821.69;;;19.05;80.87
78584;BME280;67880;46.082;18.234;2023-09-18T01:52:21;99819.81;;;19.05;81.04
78584;BME280;67880;46.082;18.234;2023-09-18T01:52:58;99814.59;;;19.04;80.44
78584;BME280;67880;46.082;18.234;2023-09-18T01:53:30;99815.00;;;19.01;80.74
78584;BME280;67880;46.082;18.234;2023-09-18T01:54:03;99817.75;;;18.94;80.95
78584;BME280;67880;46.082;18.234;2023-09-18T01:54:36;99814.38;;;18.92;80.88
78584;BME280;67880;46.082;18.234;2023-09-18T01:55:08;99819.81;;;18.92;81.34
78584;BME280;67880;46.082;18.234;2023-09-18T01:55:40;99824.84;;;18.95;81.13
78584;BME280;67880;46.082;18.234;2023-09-18T01:56:13;99825.06;;;18.93;81.32
78584;BME280;67880;46.082;18.234;2023-09-18T01:56:45;99817.53;;;18.96;81.68
78584;BME280;67880;46.082;18.234;2023-09-18T01:57:17;99817.91;;;18.99;81.04
78584;BME280;67880;46.082;18.234;2023-09-18T01:57:49;99815.00;;;19.01;81.08
78584;BME280;67880;46.082;18.234;2023-09-18T01:58:22;99810.81;;;18.98;81.21
78584;BME280;67880;46.082;18.234;2023-09-18T01:58:55;99813.31;;;19.00;81.40
78584;BME280;67880;46.082;18.234;2023-09-18T01:59:28;99817.31;;;19.04;81.10
78584;BME280;67880;46.082;18.234;2023-09-18T02:00:01;99807.03;;;18.99;80.56
78584;BME280;67880;46.082;18.234;2023-09-18T02:00:36;99814.38;;;18.99;81.25
78584;BME280;67880;46.082;18.234;2023-09-18T02:01:09;99812.69;;;18.98;81.63
78584;BME280;67880;46.082;18.234;2023-09-18T02:01:41;99815.41;;;18.98;81.29
78584;BME280;67880;46.082;18.234;2023-09-18T02:02:14;99817.09;;;18.99;81.30
78584;BME280;67880;46.082;18.234;2023-09-18T02:03:07;99815.19;;;18.92;81.55
78584;BME280;67880;46.082;18.234;2023-09-18T02:03:59;99815.41;;;18.98;81.73
78584;BME280;67880;46.082;18.234;2023-09-18T02:04:51;99814.38;;;18.99;81.80
78584;BME280;67880;46.082;18.234;2023-09-18T02:05:39;99809.75;;;18.99;81.30
78584;BME280;67880;46.082;18.234;2023-09-18T02:06:13;99810.19;;;18.96;81.66
78584;BME280;67880;46.082;18.234;2023-09-18T02:06:48;99816.47;;;18.97;81.92
78584;BME280;67880;46.082;18.234;2023-09-18T02:07:20;99808.53;;;18.95;81.38
78584;BME280;67880;46.082;18.234;2023-09-18T02:07:53;99811.66;;;18.92;81.78
78584;BME280;67880;46.082;18.234;2023-09-18T02:08:25;99813.75;;;18.90;81.86
78584;BME280;67880;46.082;18.234;2023-09-18T02:08:57;99811.25;;;18.88;82.07
78584;BME280;67880;46.082;18.234;2023-09-18T02:09:30;99812.09;;;18.89;81.31
78584;BME280;67880;46.082;18.234;2023-09-18T02:10:03;99805.81;;;18.88;81.55
78584;BME280;67880;46.082;18.234;2023-09-18T02:10:35;99815.03;;;18.87;82.20
78584;BME280;67880;46.082;18.234;2023-09-18T02:11:07;99812.47;;;18.86;81.88
78584;BME280;67880;46.082;18.234;2023-09-18T02:11:41;99810.19;;;18.83;82.60
78584;BME280;67880;46.082;18.234;2023-09-18T02:12:14;99803.94;;;18.82;82.03
78584;BME280;67880;46.082;18.234;2023-09-18T02:12:49;99812.47;;;18.86;82.14
78584;BME280;67880;46.082;18.234;2023-09-18T02:13:24;99810.59;;;18.86;82.06
78584;BME280;67880;46.082;18.234;2023-09-18T02:13:56;99811.03;;;18.83;82.17
78584;BME280;67880;46.082;18.234;2023-09-18T02:14:28;99804.31;;;18.86;82.66
78584;BME280;67880;46.082;18.234;2023-09-18T02:15:03;99807.25;;;18.84;82.67
78584;BME280;67880;46.082;18.234;2023-09-18T02:15:38;99806.66;;;18.82;82.38
78584;BME280;67880;46.082;18.234;2023-09-18T02:16:11;99806.22;;;18.79;82.44
78584;BME280;67880;46.082;18.234;2023-09-18T02:16:43;99808.31;;;18.77;82.44
78584;BME280;67880;46.082;18.234;2023-09-18T02:17:15;99806.66;;;18.76;82.89
78584;BME280;67880;46.082;18.234;2023-09-18T02:17:48;99807.88;;;18.80;82.80
78584;BME280;67880;46.082;18.234;2023-09-18T02:18:20;99810.19;;;18.76;83.03
78584;BME280;67880;46.082;18.234;2023-09-18T02:18:54;99806.66;;;18.76;82.98
78584;BME280;67880;46.082;18.234;2023-09-18T02:19:28;99808.09;;;18.78;82.44
78584;BME280;67880;46.082;18.234;2023-09-18T02:20:00;99812.31;;;18.74;82.68
78584;BME280;67880;46.082;18.234;2023-09-18T02:20:40;99807.69;;;18.75;82.48
78584;BME280;67880;46.082;18.234;2023-09-18T02:21:23;99804.97;;;18.75;82.71
78584;BME280;67880;46.082;18.234;2023-09-18T02:21:56;99817.53;;;18.76;82.46
78584;BME280;67880;46.082;18.234;2023-09-18T02:22:30;99809.97;;;18.78;82.53
78584;BME280;67880;46.082;18.234;2023-09-18T02:23:05;99803.91;;;18.69;82.89
78584;BME280;67880;46.082;18.234;2023-09-18T02:23:38;99811.03;;;18.70;82.76
78584;BME280;67880;46.082;18.234;2023-09-18T02:24:10;99802.44;;;18.73;83.00
78584;BME280;67880;46.082;18.234;2023-09-18T02:24:42;99806.44;;;18.71;82.87
78584;BME280;67880;46.082;18.234;2023-09-18T02:25:14;99797.66;;;18.69;83.25
78584;BME280;67880;46.082;18.234;2023-09-18T02:25:55;99797.22;;;18.72;82.99
78584;BME280;67880;46.082;18.234;2023-09-18T02:26:28;99806.00;;;18.74;82.98
78584;BME280;67880;46.082;18.234;2023-09-18T02:27:00;99805.16;;;18.73;82.40
78584;BME280;67880;46.082;18.234;2023-09-18T02:27:32;99806.84;;;18.74;82.99
78584;BME280;67880;46.082;18.234;2023-09-18T02:28:05;99803.50;;;18.72;82.75
78584;BME280;67880;46.082;18.234;2023-09-18T02:28:37;99801.19;;;18.69;82.47
78584;BME280;67880;46.082;18.234;2023-09-18T02:29:09;99806.44;;;18.71;82.94
78584;BME280;67880;46.082;18.234;2023-09-18T02:29:43;99808.94;;;18.72;82.85
78584;BME280;67880;46.082;18.234;2023-09-18T02:30:17;99804.31;;;18.73;82.78
78584;BME280;67880;46.082;18.234;2023-09-18T02:30:51;99802.66;;;18.72;82.35
78584;BME280;67880;46.082;18.234;2023-09-18T02:31:23;99805.16;;;18.73;82.72
78584;BME280;67880;46.082;18.234;2023-09-18T02:31:55;99803.91;;;18.69;82.66
78584;BME280;67880;46.082;18.234;2023-09-18T02:32:27;99804.31;;;18.73;82.51
78584;BME280;67880;46.082;18.234;2023-09-18T02:33:00;99807.47;;;18.70;82.20
78584;BME280;67880;46.082;18.234;2023-09-18T02:33:35;99803.09;;;18.69;82.79
78584;BME280;67880;46.082;18.234;2023-09-18T02:34:08;99806.44;;;18.71;82.72
78584;BME280;67880;46.082;18.234;2023-09-18T02:34:41;99799.09;;;18.71;82.37
78584;BME280;67880;46.082;18.234;2023-09-18T02:35:14;99790.91;;;18.64;83.29
78584;BME280;67880;46.082;18.234;2023-09-18T02:35:46;99800.94;;;18.64;83.33
78584;BME280;67880;46.082;18.234;2023-09-18T02:36:19;99784.84;;;18.62;83.00
78584;BME280;67880;46.082;18.234;2023-09-18T02:36:52;99789.63;;;18.60;83.00
78584;BME280;67880;46.082;18.234;2023-09-18T02:37:24;99787.34;;;18.57;83.48
78584;BME280;67880;46.082;18.234;2023-09-18T02:37:57;99787.56;;;18.56;83.17
78584;BME280;67880;46.082;18.234;2023-09-18T02:38:29;99784.84;;;18.56;83.18
78584;BME280;67880;46.082;18.234;2023-09-18T02:39:13;99787.75;;;18.61;83.11
78584;BME280;67880;46.082;18.234;2023-09-18T02:39:45;99781.69;;;18.59;82.93
78584;BME280;67880;46.082;18.234;2023-09-18T02:40:18;99790.47;;;18.61;83.32
78584;BME280;67880;46.082;18.234;2023-09-18T02:40:50;99786.09;;;18.60;83.11
78584;BME280;67880;46.082;18.234;2023-09-18T02:41:23;99785.69;;;18.63;83.45
78584;BME280;67880;46.082;18.234;2023-09-18T02:41:55;99786.09;;;18.60;83.62
78584;BME280;67880;46.082;18.234;2023-09-18T02:42:28;99779.81;;;18.59;83.01
78584;BME280;67880;46.082;18.234;2023-09-18T02:43:00;99789.25;;;18.57;83.12
78584;BME280;67880;46.082;18.234;2023-09-18T02:43:34;99789.63;;;18.60;83.57
78584;BME280;67880;46.082;18.234;2023-09-18T02:44:06;99786.31;;;18.58;82.90
78584;BME280;67880;46.082;18.234;2023-09-18T02:44:38;99789.03;;;18.58;83.08
78584;BME280;67880;46.082;18.234;2023-09-18T02:45:11;99789.63;;;18.60;82.76
78584;BME280;67880;46.082;18.234;2023-09-18T02:45:43;99785.03;;;18.61;83.08
78584;BME280;67880;46.082;18.234;2023-09-18T02:46:22;99783.81;;;18.57;83.24
78584;BME280;67880;46.082;18.234;2023-09-18T02:46:55;99781.69;;;18.59;83.29
78584;BME280;67880;46.082;18.234;2023-09-18T02:47:27;99787.75;;;18.61;83.25
78584;BME280;67880;46.082;18.234;2023-09-18T02:48:00;99790.69;;;18.59;83.43
78584;BME280;67880;46.082;18.234;2023-09-18T02:48:32;99789.63;;;18.60;83.18
78584;BME280;67880;46.082;18.234;2023-09-18T02:49:05;99786.91;;;18.60;83.37
78584;BME280;67880;46.082;18.234;2023-09-18T02:49:37;99783.81;;;18.63;83.02
78584;BME280;67880;46.082;18.234;2023-09-18T02:50:09;99782.97;;;18.63;83.25
78584;BME280;67880;46.082;18.234;2023-09-18T02:50:45;99792.56;;;18.65;83.08
78584;BME280;67880;46.082;18.234;2023-09-18T02:51:18;99783.81;;;18.63;83.09
78584;BME280;67880;46.082;18.234;2023-09-18T02:51:50;99787.34;;;18.64;83.24
78584;BME280;67880;46.082;18.234;2023-09-18T02:52:24;99787.56;;;18.62;82.95
78584;BME280;67880;46.082;18.234;2023-09-18T02:52:57;99786.75;;;18.62;83.24
78584;BME280;67880;46.082;18.234;2023-09-18T02:53:29;99795.06;;;18.60;83.21
78584;BME280;67880;46.082;18.234;2023-09-18T02:54:03;99786.50;;;18.57;83.30
78584;BME280;67880;46.082;18.234;2023-09-18T02:54:35;99791.75;;;18.58;83.57
78584;BME280;67880;46.082;18.234;2023-09-18T02:55:08;99786.91;;;18.60;82.96
78584;BME280;67880;46.082;18.234;2023-09-18T02:55:42;99782.97;;;18.56;83.90
78584;BME280;67880;46.082;18.234;2023-09-18T02:56:15;99792.34;;;18.60;83.24
78584;BME280;67880;46.082;18.234;2023-09-18T02:56:48;99788.19;;;18.58;83.15
78584;BME280;67880;46.082;18.234;2023-09-18T02:57:21;99787.56;;;18.56;83.26
78584;BME280;67880;46.082;18.234;2023-09-18T02:57:53;99771.66;;;18.53;83.12
78584;BME280;67880;46.082;18.234;2023-09-18T02:58:26;99779.41;;;18.56;83.76
78584;BME280;67880;46.082;18.234;2023-09-18T02:59:00;99784.00;;;18.55;83.34
78584;BME280;67880;46.082;18.234;2023-09-18T02:59:32;99785.03;;;18.54;83.87
78584;BME280;67880;46.082;18.234;2023-09-18T03:00:06;99774.38;;;18.53;83.59
78584;BME280;67880;46.082;18.234;2023-09-18T03:00:49;99780.63;;;18.53;84.00